Time;durP1;ratioP1;P1;durP2;ratioP2;P2;SDS_P1;SDS_P2;PMS_P1;PMS_P2;Temp;Humidity;BMP_temperature;BMP_pressure;BME280_temperature;BME280_humidity;BME280_pressure;Samples;Min_cycle;Max_cycle;Signal;HPM_P1;HPM_P2
2022/06/08 00:02:11;;;;;;;0.10;0.10;;;9.80;99.90;;;;;;5075472;28;20788;-81
2022/06/08 00:04:38;;;;;;;0.10;0.10;;;9.80;99.90;;;;;;5058744;28;20413;-81
2022/06/08 00:07:05;;;;;;;0.55;0.25;;;9.80;99.90;;;;;;5075630;28;20093;-82
2022/06/08 00:09:32;;;;;;;0.10;0.10;;;9.80;99.90;;;;;;5092274;28;20450;-80
2022/06/08 00:11:58;;;;;;;0.20;0.20;;;9.70;99.90;;;;;;5075624;28;20405;-80
2022/06/08 00:14:25;;;;;;;0.22;0.20;;;9.70;99.90;;;;;;5075340;28;20127;-82
2022/06/08 00:16:52;;;;;;;0.10;0.10;;;9.70;99.90;;;;;;5058618;28;20036;-82
2022/06/08 00:19:19;;;;;;;0.10;0.10;;;9.70;99.90;;;;;;5074909;28;20102;-80
2022/06/08 00:21:45;;;;;;;0.10;0.10;;;9.70;99.90;;;;;;5075234;28;20040;-81
2022/06/08 00:24:12;;;;;;;0.30;0.20;;;9.70;99.90;;;;;;5075080;28;20098;-80
2022/06/08 00:26:39;;;;;;;0.10;0.10;;;9.70;99.90;;;;;;5091102;28;20036;-80
2022/06/08 00:29:06;;;;;;;0.20;0.20;;;9.60;99.90;;;;;;5075113;28;20097;-80
2022/06/08 00:31:33;;;;;;;0.10;0.10;;;9.60;99.90;;;;;;5091583;28;20040;-82
2022/06/08 00:34:00;;;;;;;0.13;0.13;;;9.60;99.90;;;;;;5058424;28;20378;-80
2022/06/08 00:36:26;;;;;;;0.10;0.10;;;9.60;99.90;;;;;;5058315;28;20040;-80
2022/06/08 00:38:53;;;;;;;0.10;0.10;;;9.50;99.90;;;;;;5058267;28;20538;-81
2022/06/08 00:41:59;;;;;;;0.10;0.10;;;9.60;99.90;;;;;;5074903;28;20119;-82
2022/06/08 00:44:39;;;;;;;0.10;0.10;;;9.50;99.90;;;;;;5074173;28;20378;-81
2022/06/08 00:47:09;;;;;;;0.13;0.13;;;9.60;99.90;;;;;;5074668;28;20048;-82
2022/06/08 00:49:50;;;;;;;0.10;0.10;;;9.60;99.90;;;;;;5090892;28;20110;-80
2022/06/08 00:52:17;;;;;;;0.10;0.10;;;9.50;99.90;;;;;;5074715;28;20047;-80
2022/06/08 00:54:49;;;;;;;0.15;0.15;;;9.60;99.90;;;;;;5074248;28;20037;-80
2022/06/08 00:57:20;;;;;;;0.00;0.00;;;9.60;99.90;;;;;;5074615;28;20041;-80
2022/06/08 00:59:50;;;;;;;0.20;0.20;;;9.60;99.90;;;;;;5074161;28;20097;-81
2022/06/08 01:02:21;;;;;;;0.10;0.10;;;9.60;99.90;;;;;;5074721;28;20047;-82
2022/06/08 01:04:48;;;;;;;0.10;0.10;;;9.60;99.90;;;;;;5074579;28;20045;-80
2022/06/08 01:07:19;;;;;;;0.00;0.00;;;9.60;99.90;;;;;;5074287;28;20535;-82
2022/06/08 01:09:47;;;;;;;0.10;0.10;;;9.60;99.90;;;;;;5074185;28;20068;-81
2022/06/08 01:12:20;;;;;;;0.10;0.10;;;9.60;99.90;;;;;;5074222;28;20046;-81
2022/06/08 01:14:48;;;;;;;0.00;0.00;;;9.50;99.90;;;;;;5073784;28;20083;-80
2022/06/08 01:17:18;;;;;;;0.10;0.10;;;9.50;99.90;;;;;;5090599;28;20486;-81
2022/06/08 01:19:47;;;;;;;0.10;0.10;;;9.50;99.90;;;;;;5090481;28;20498;-82
2022/06/08 01:22:17;;;;;;;0.03;0.03;;;9.50;99.90;;;;;;5090792;28;20083;-82
2022/06/08 01:24:47;;;;;;;0.15;0.13;;;9.50;99.90;;;;;;5073636;28;20123;-82
2022/06/08 01:27:46;;;;;;;0.20;0.20;;;9.60;99.90;;;;;;5074194;28;20040;-80
2022/06/08 01:30:30;;;;;;;0.10;0.10;;;9.50;99.90;;;;;;5074010;28;20042;-80
2022/06/08 01:33:05;;;;;;;0.20;0.20;;;9.50;99.90;;;;;;5073874;28;20036;-81
2022/06/08 01:35:43;;;;;;;0.13;0.10;;;9.50;99.90;;;;;;5073646;28;20041;-81
2022/06/08 01:38:32;;;;;;;0.10;0.10;;;9.50;99.90;;;;;;5074053;28;20047;-82
2022/06/08 01:41:19;;;;;;;0.10;0.10;;;9.40;99.90;;;;;;5073682;28;20036;-82
2022/06/08 01:44:22;;;;;;;0.10;0.10;;;9.40;99.90;;;;;;5073279;28;20417;-80
2022/06/08 01:47:06;;;;;;;0.10;0.10;;;9.40;99.90;;;;;;5089990;28;20041;-82
2022/06/08 01:49:59;;;;;;;0.55;0.25;;;9.40;99.90;;;;;;5089651;28;20079;-81
2022/06/08 01:52:40;;;;;;;0.10;0.10;;;9.40;99.90;;;;;;5090050;28;20041;-81
2022/06/08 01:55:10;;;;;;;0.03;0.03;;;9.40;99.90;;;;;;5090107;28;20493;-80
2022/06/08 01:57:48;;;;;;;0.10;0.10;;;9.30;99.90;;;;;;5073124;28;20131;-80
2022/06/08 02:00:20;;;;;;;0.03;0.03;;;9.30;99.90;;;;;;5073628;28;20040;-80
2022/06/08 02:02:57;;;;;;;0.10;0.10;;;9.30;99.90;;;;;;5073516;28;20044;-82
2022/06/08 02:05:27;;;;;;;0.00;0.00;;;9.30;99.90;;;;;;5106712;28;20036;-80
2022/06/08 02:08:00;;;;;;;0.10;0.10;;;9.30;99.90;;;;;;5072290;28;20041;-81
2022/06/08 02:10:32;;;;;;;0.00;0.00;;;9.30;99.90;;;;;;5073805;28;20074;-81
2022/06/08 02:13:07;;;;;;;0.20;0.20;;;9.20;99.90;;;;;;5090063;28;20093;-81
2022/06/08 02:15:38;;;;;;;0.00;0.00;;;9.30;99.90;;;;;;5073310;28;20103;-80
2022/06/08 02:18:19;;;;;;;0.30;0.30;;;9.20;99.90;;;;;;5073818;28;20286;-82
2022/06/08 02:20:54;;;;;;;0.20;0.20;;;9.20;99.90;;;;;;5072860;28;20047;-82
2022/06/08 02:23:32;;;;;;;1.27;0.30;;;9.20;99.90;;;;;;5073454;28;20182;-82
2022/06/08 02:26:12;;;;;;;0.47;0.30;;;9.20;99.90;;;;;;5072862;28;20524;-80
2022/06/08 02:28:51;;;;;;;0.25;0.22;;;9.20;99.90;;;;;;5072929;28;20072;-80
2022/06/08 02:31:30;;;;;;;0.20;0.20;;;9.20;99.90;;;;;;5089432;28;20032;-80
2022/06/08 02:36:53;;;;;;;0.03;0.03;;;9.20;99.90;;;;;;5106350;28;20055;-80
2022/06/08 02:39:38;;;;;;;0.20;0.10;;;9.20;99.90;;;;;;5073061;28;20051;-82
2022/06/08 02:42:14;;;;;;;0.03;0.03;;;9.20;99.90;;;;;;5072661;28;20040;-82
2022/06/08 02:44:45;;;;;;;0.08;0.08;;;9.20;99.90;;;;;;5072583;28;20048;-81
2022/06/08 02:47:36;;;;;;;0.10;0.10;;;9.20;99.90;;;;;;5072204;28;20510;-80
2022/06/08 02:50:08;;;;;;;0.40;0.30;;;9.20;99.90;;;;;;5088541;28;20444;-82
2022/06/08 02:52:36;;;;;;;0.30;0.30;;;9.20;99.90;;;;;;5072278;28;20037;-81
2022/06/08 02:55:31;;;;;;;0.03;0.03;;;9.30;99.90;;;;;;5088847;28;20036;-80
2022/06/08 02:58:35;;;;;;;0.00;0.00;;;9.30;99.90;;;;;;5061290;28;20044;-81
2022/06/08 03:01:12;;;;;;;0.10;0.10;;;9.40;99.90;;;;;;5041585;28;20075;-80
2022/06/08 03:03:45;;;;;;;0.10;0.10;;;9.40;99.90;;;;;;5072630;28;20421;-80
2022/06/08 03:06:19;;;;;;;0.10;0.10;;;9.40;99.90;;;;;;5072986;28;20048;-80
2022/06/08 03:08:56;;;;;;;0.20;0.10;;;9.40;99.90;;;;;;5072257;28;20040;-80
2022/06/08 03:11:26;;;;;;;0.10;0.10;;;9.40;99.90;;;;;;5072299;28;20128;-80
2022/06/08 03:13:56;;;;;;;0.10;0.10;;;9.40;99.90;;;;;;5072733;28;20036;-82
2022/06/08 03:16:30;;;;;;;0.10;0.10;;;9.40;99.90;;;;;;5072703;28;20037;-80
2022/06/08 03:18:57;;;;;;;0.00;0.00;;;9.50;99.90;;;;;;5090832;28;20082;-81
2022/06/08 03:21:25;;;;;;;0.10;0.10;;;9.50;99.90;;;;;;5093169;28;20556;-80
2022/06/08 03:23:53;;;;;;;0.10;0.10;;;9.50;99.90;;;;;;5076201;28;20032;-80
2022/06/08 03:26:22;;;;;;;0.32;0.30;;;9.50;99.90;;;;;;5060191;28;20047;-82
2022/06/08 03:28:49;;;;;;;0.00;0.00;;;9.60;99.90;;;;;;5076100;28;20811;-82
2022/06/08 03:31:17;;;;;;;0.10;0.10;;;9.50;99.90;;;;;;5092654;28;20128;-82
2022/06/08 03:33:43;;;;;;;0.00;0.00;;;9.50;99.90;;;;;;5076260;28;20166;-80
2022/06/08 03:36:12;;;;;;;0.00;0.00;;;9.50;99.90;;;;;;5059168;28;20507;-82
2022/06/08 03:38:38;;;;;;;0.10;0.10;;;9.50;99.90;;;;;;5075945;28;20045;-80
2022/06/08 03:41:05;;;;;;;0.10;0.10;;;9.60;99.90;;;;;;5076130;28;20047;-81
2022/06/08 03:43:32;;;;;;;0.10;0.10;;;9.60;99.90;;;;;;5075976;28;20390;-80
2022/06/08 03:46:02;;;;;;;0.65;0.10;;;9.60;99.90;;;;;;5075554;28;20044;-81
2022/06/08 03:48:29;;;;;;;0.13;0.13;;;9.60;99.90;;;;;;5076018;28;20049;-82
2022/06/08 03:50:59;;;;;;;0.13;0.13;;;9.70;99.90;;;;;;5075250;28;20056;-82
2022/06/08 03:53:32;;;;;;;0.20;0.20;;;9.60;99.90;;;;;;5091836;28;20036;-81
2022/06/08 03:56:03;;;;;;;0.00;0.00;;;9.70;99.90;;;;;;5075626;28;20036;-81
2022/06/08 03:58:31;;;;;;;0.10;0.10;;;9.70;99.90;;;;;;5092385;28;20405;-80
2022/06/08 04:00:58;;;;;;;0.10;0.10;;;9.80;99.90;;;;;;5059389;28;20036;-81
2022/06/08 04:03:25;;;;;;;0.13;0.13;;;9.80;99.90;;;;;;5075673;28;20098;-81
2022/06/08 04:05:52;;;;;;;0.55;0.40;;;9.80;99.90;;;;;;5075128;28;20576;-80
2022/06/08 04:08:19;;;;;;;0.28;0.28;;;9.90;99.90;;;;;;5091735;28;20131;-81
2022/06/08 04:10:45;;;;;;;0.50;0.40;;;9.90;99.90;;;;;;5075348;28;20094;-82
2022/06/08 04:13:12;;;;;;;0.00;0.00;;;10.20;99.90;;;;;;5075074;28;20040;-81
2022/06/08 04:15:41;;;;;;;0.00;0.00;;;10.10;99.90;;;;;;5075333;28;20029;-81
2022/06/08 04:18:20;;;;;;;0.10;0.10;;;10.20;99.90;;;;;;5058995;28;20043;-81
2022/06/08 04:20:50;;;;;;;0.20;0.10;;;10.20;99.90;;;;;;5075345;28;20428;-81
2022/06/08 04:23:18;;;;;;;0.20;0.20;;;10.40;99.90;;;;;;5091592;28;20040;-81
2022/06/08 04:25:45;;;;;;;0.10;0.10;;;10.40;99.90;;;;;;5091821;28;20102;-80
2022/06/08 04:28:13;;;;;;;0.17;0.17;;;10.50;99.90;;;;;;5074776;28;20055;-82
2022/06/08 04:30:41;;;;;;;0.10;0.10;;;10.50;99.90;;;;;;5074611;28;20437;-81
2022/06/08 04:33:08;;;;;;;0.05;0.05;;;10.70;99.90;;;;;;5074895;28;20036;-82
2022/06/08 04:35:35;;;;;;;0.20;0.20;;;10.60;99.90;;;;;;5074873;28;20120;-80
2022/06/08 04:38:02;;;;;;;0.00;0.00;;;10.80;99.90;;;;;;5074444;28;20417;-80
2022/06/08 04:40:30;;;;;;;0.20;0.17;;;10.90;99.90;;;;;;5074782;28;20097;-82
2022/06/08 04:42:56;;;;;;;0.47;0.22;;;10.90;99.90;;;;;;5075071;28;20048;-80
2022/06/08 04:45:24;;;;;;;0.10;0.10;;;10.90;99.90;;;;;;5074745;28;20544;-82
2022/06/08 04:47:51;;;;;;;0.38;0.25;;;10.90;99.90;;;;;;5074582;28;20106;-82
2022/06/08 04:50:18;;;;;;;0.10;0.10;;;10.90;99.90;;;;;;5090695;28;20142;-82
2022/06/08 04:52:45;;;;;;;0.10;0.10;;;11.00;99.90;;;;;;5074830;28;20460;-80
2022/06/08 04:55:14;;;;;;;0.43;0.35;;;11.00;99.90;;;;;;5074175;28;20052;-81
2022/06/08 04:57:41;;;;;;;0.17;0.13;;;10.90;99.90;;;;;;5091215;28;20048;-82
2022/06/08 05:00:13;;;;;;;0.15;0.15;;;11.10;99.90;;;;;;5074357;28;20036;-82
2022/06/08 05:02:43;;;;;;;0.28;0.28;;;11.20;99.90;;;;;;5074451;28;20443;-81
2022/06/08 05:05:23;;;;;;;0.30;0.15;;;11.30;99.90;;;;;;5073961;28;20600;-82
2022/06/08 05:07:51;;;;;;;0.10;0.10;;;11.40;99.90;;;;;;5090713;28;20040;-80
2022/06/08 05:10:19;;;;;;;0.05;0.05;;;11.60;99.90;;;;;;5073989;28;20043;-82
2022/06/08 05:12:46;;;;;;;0.10;0.10;;;11.80;99.90;;;;;;5063729;28;20119;-82
2022/06/08 05:15:24;;;;;;;0.20;0.13;;;12.00;99.90;;;;;;5064618;28;20123;-80
2022/06/08 05:17:50;;;;;;;0.17;0.17;;;12.30;99.90;;;;;;5089641;28;20419;-80
2022/06/08 05:20:19;;;;;;;0.20;0.17;;;12.50;99.90;;;;;;5057189;28;20043;-81
2022/06/08 05:22:47;;;;;;;0.10;0.10;;;12.60;99.90;;;;;;5068233;28;20047;-80
2022/06/08 05:25:23;;;;;;;1.05;0.43;;;12.80;99.90;;;;;;5070920;28;20048;-82
2022/06/08 05:27:50;;;;;;;0.43;0.40;;;12.80;99.90;;;;;;5072227;28;20048;-80
2022/06/08 05:30:18;;;;;;;0.10;0.10;;;12.90;99.90;;;;;;5063818;28;20444;-80
2022/06/08 05:32:45;;;;;;;0.10;0.10;;;13.00;99.90;;;;;;5065288;28;20051;-82
2022/06/08 05:35:12;;;;;;;0.10;0.10;;;13.10;99.90;;;;;;5045715;28;20037;-82
2022/06/08 05:37:39;;;;;;;0.05;0.05;;;13.10;99.90;;;;;;5080821;28;20406;-82
2022/06/08 05:40:07;;;;;;;0.28;0.15;;;13.10;99.90;;;;;;5065186;28;20036;-81
2022/06/08 05:42:34;;;;;;;0.17;0.17;;;13.10;99.90;;;;;;5081958;28;20070;-81
2022/06/08 05:45:01;;;;;;;0.20;0.20;;;13.10;99.90;;;;;;5075067;28;20132;-81
2022/06/08 05:47:28;;;;;;;0.00;0.00;;;13.10;99.90;;;;;;5071352;28;20589;-81
2022/06/08 05:49:54;;;;;;;0.10;0.10;;;13.10;99.90;;;;;;5069904;28;20049;-81
2022/06/08 05:52:21;;;;;;;0.52;0.35;;;13.10;99.90;;;;;;5036767;28;20045;-82
2022/06/08 05:54:48;;;;;;;0.05;0.05;;;13.10;99.90;;;;;;5037142;28;20106;-82
2022/06/08 05:57:15;;;;;;;0.28;0.20;;;13.20;99.90;;;;;;5046056;28;20036;-80
2022/06/08 05:59:42;;;;;;;0.30;0.22;;;13.10;99.90;;;;;;5056649;28;20404;-82
2022/06/08 06:02:12;;;;;;;0.10;0.10;;;13.10;99.90;;;;;;5073171;28;20036;-82
2022/06/08 06:04:40;;;;;;;0.50;0.50;;;13.20;99.90;;;;;;5073379;28;20116;-82
2022/06/08 06:07:07;;;;;;;1.13;0.47;;;13.20;99.90;;;;;;5072987;28;20040;-81
2022/06/08 06:09:34;;;;;;;0.13;0.13;;;13.30;99.90;;;;;;5089431;28;20573;-80
2022/06/08 06:12:01;;;;;;;0.30;0.30;;;13.30;99.90;;;;;;5059128;28;20049;-80
2022/06/08 06:14:27;;;;;;;0.25;0.25;;;13.40;99.90;;;;;;5054508;28;20037;-80
2022/06/08 06:16:54;;;;;;;0.47;0.30;;;13.50;99.90;;;;;;5056708;28;20037;-82
2022/06/08 06:19:24;;;;;;;0.50;0.22;;;13.60;99.90;;;;;;5056319;28;20037;-82
2022/06/08 06:21:51;;;;;;;0.22;0.20;;;13.70;99.90;;;;;;5056495;28;20708;-80
2022/06/08 06:24:18;;;;;;;0.15;0.10;;;13.90;99.90;;;;;;5072923;28;20094;-84
2022/06/08 06:26:45;;;;;;;0.60;0.40;;;13.90;99.90;;;;;;5073003;28;20427;-82
2022/06/08 06:29:15;;;;;;;0.25;0.25;;;14.00;99.90;;;;;;5053409;28;20036;-82
2022/06/08 06:31:56;;;;;;;0.40;0.25;;;14.10;99.90;;;;;;5085317;28;20045;-82
2022/06/08 06:34:26;;;;;;;0.10;0.10;;;14.20;99.90;;;;;;5060781;28;20040;-80
2022/06/08 06:36:54;;;;;;;0.55;0.40;;;14.20;99.90;;;;;;5069304;28;20437;-80
2022/06/08 06:39:22;;;;;;;0.25;0.25;;;14.30;99.90;;;;;;5052608;28;20040;-82
2022/06/08 06:41:49;;;;;;;0.45;0.30;;;14.30;99.90;;;;;;5072379;28;20072;-81
2022/06/08 06:44:16;;;;;;;0.88;0.50;;;14.40;99.90;;;;;;5072181;28;20048;-81
2022/06/08 06:46:43;;;;;;;0.80;0.50;;;14.50;99.90;;;;;;5072373;28;20033;-81
2022/06/08 06:49:11;;;;;;;0.43;0.28;;;14.70;99.90;;;;;;5070419;28;20041;-82
2022/06/08 06:51:38;;;;;;;0.40;0.30;;;14.80;99.90;;;;;;5088041;28;20424;-80
2022/06/08 06:54:07;;;;;;;0.17;0.17;;;14.80;99.90;;;;;;5054501;28;20037;-83
2022/06/08 06:56:34;;;;;;;0.20;0.17;;;14.90;99.90;;;;;;5058167;28;20043;-81
2022/06/08 06:59:02;;;;;;;0.35;0.25;;;15.00;99.90;;;;;;5058897;28;20096;-81
2022/06/08 07:01:29;;;;;;;1.00;0.52;;;15.10;99.90;;;;;;5078524;28;20490;-83
2022/06/08 07:03:57;;;;;;;1.00;0.52;;;15.20;99.90;;;;;;5077778;28;20051;-82
2022/06/08 07:06:24;;;;;;;0.65;0.40;;;15.40;99.90;;;;;;5069237;28;20566;-82
2022/06/08 07:08:50;;;;;;;0.30;0.20;;;15.50;99.90;;;;;;5093368;28;20041;-80
2022/06/08 07:11:37;;;;;;;0.65;0.43;;;15.70;99.90;;;;;;5061082;28;20041;-81
2022/06/08 07:14:05;;;;;;;0.15;0.15;;;15.70;99.90;;;;;;5048471;28;21478;-82
2022/06/08 07:16:33;;;;;;;0.77;0.40;;;15.90;99.90;;;;;;5065519;28;20044;-80
2022/06/08 07:19:00;;;;;;;0.98;0.30;;;16.00;99.90;;;;;;5085760;28;20493;-83
2022/06/08 07:21:27;;;;;;;0.30;0.30;;;16.00;99.90;;;;;;5064142;28;20043;-79
2022/06/08 07:23:55;;;;;;;0.95;0.50;;;16.20;99.90;;;;;;5065472;28;20414;-80
2022/06/08 07:26:25;;;;;;;1.15;0.70;;;16.20;99.90;;;;;;5069348;28;20048;-80
2022/06/08 07:28:52;;;;;;;0.93;0.57;;;16.40;99.90;;;;;;5098782;28;20036;-79
2022/06/08 07:31:20;;;;;;;1.02;0.50;;;16.40;99.90;;;;;;5073465;28;20043;-78
2022/06/08 07:33:47;;;;;;;0.40;0.32;;;16.50;99.90;;;;;;5084128;28;20064;-80
2022/06/08 07:36:15;;;;;;;0.50;0.40;;;16.60;99.90;;;;;;5083328;28;20032;-80
2022/06/08 07:38:42;;;;;;;1.13;0.65;;;16.60;99.90;;;;;;5076302;28;20048;-81
2022/06/08 07:41:09;;;;;;;1.23;0.30;;;16.70;99.90;;;;;;5078717;28;20132;-83
2022/06/08 07:43:35;;;;;;;0.93;0.40;;;16.90;99.90;;;;;;5061213;28;20045;-81
2022/06/08 07:46:02;;;;;;;0.77;0.50;;;17.00;99.90;;;;;;5061091;28;20066;-80
2022/06/08 07:51:14;;;;;;;1.23;0.65;;;17.20;99.90;;;;;;5080087;28;20134;-80
2022/06/08 07:53:42;;;;;;;0.50;0.40;;;17.30;99.90;;;;;;5061637;28;20044;-80
2022/06/08 07:56:09;;;;;;;0.75;0.40;;;17.50;99.90;;;;;;5062082;28;20090;-80
2022/06/08 07:58:36;;;;;;;0.68;0.47;;;17.50;99.90;;;;;;5061215;28;20044;-80
2022/06/08 08:01:03;;;;;;;0.35;0.32;;;17.50;99.90;;;;;;5077764;28;20036;-81
2022/06/08 08:03:30;;;;;;;0.80;0.40;;;17.60;99.90;;;;;;5094692;28;20051;-80
2022/06/08 08:05:57;;;;;;;1.10;0.63;;;17.60;99.90;;;;;;5090826;28;20489;-80
2022/06/08 08:08:24;;;;;;;0.65;0.50;;;17.70;99.90;;;;;;5074397;28;20036;-80
2022/06/08 08:10:50;;;;;;;0.73;0.45;;;17.70;99.90;;;;;;5074577;28;20849;-80
2022/06/08 08:13:17;;;;;;;0.80;0.50;;;17.70;99.90;;;;;;5075313;28;20040;-80
2022/06/08 08:15:44;;;;;;;0.73;0.50;;;17.80;99.90;;;;;;5057987;28;20080;-80
2022/06/08 08:18:12;;;;;;;0.75;0.60;;;17.90;99.90;;;;;;5091257;28;20044;-81
2022/06/08 08:20:39;;;;;;;1.20;0.88;;;18.00;99.90;;;;;;5074530;28;20045;-81
2022/06/08 08:23:06;;;;;;;0.98;0.68;;;18.20;99.90;;;;;;5090994;28;20048;-82
2022/06/08 08:25:34;;;;;;;0.95;0.52;;;18.20;99.90;;;;;;5074407;28;20110;-80
2022/06/08 08:28:01;;;;;;;0.98;0.55;;;18.20;99.90;;;;;;5074589;28;20047;-80
2022/06/08 08:30:29;;;;;;;0.93;0.60;;;18.30;99.90;;;;;;5073709;28;20746;-80
2022/06/08 08:32:56;;;;;;;0.98;0.63;;;18.50;99.90;;;;;;5074355;28;20568;-81
2022/06/08 08:35:24;;;;;;;0.50;0.40;;;18.60;99.90;;;;;;5090788;28;20063;-81
2022/06/08 08:37:53;;;;;;;0.95;0.57;;;18.80;99.90;;;;;;5090909;28;20083;-80
2022/06/08 08:40:51;;;;;;;0.88;0.50;;;18.90;99.90;;;;;;5074842;28;20051;-80
2022/06/08 08:43:24;;;;;;;0.77;0.40;;;18.80;99.90;;;;;;5091218;28;20040;-80
2022/06/08 08:46:15;;;;;;;0.80;0.55;;;18.90;99.90;;;;;;5074913;28;20041;-80
2022/06/08 08:49:13;;;;;;;0.55;0.40;;;19.10;99.90;;;;;;5073973;28;20642;-80
2022/06/08 08:51:46;;;;;;;0.75;0.57;;;19.10;99.90;;;;;;5046541;28;20054;-80
2022/06/08 08:54:36;;;;;;;0.95;0.55;;;19.20;99.90;;;;;;5031390;28;20088;-82
2022/06/08 08:57:12;;;;;;;0.60;0.40;;;19.30;99.90;;;;;;5051010;28;20397;-82
2022/06/08 08:59:44;;;;;;;0.35;0.28;;;19.50;99.90;;;;;;5050189;28;20483;-81
2022/06/08 09:03:14;;;;;;;3.20;0.52;;;19.50;99.90;;;;;;5050577;28;20044;-81
2022/06/08 09:05:18;;;;;;;0.30;0.30;;;19.50;99.90;;;;;;5067130;28;20044;-81
2022/06/08 09:07:45;;;;;;;0.10;0.10;;;19.60;99.90;;;;;;5050349;28;20144;-82
2022/06/08 09:10:20;;;;;;;0.30;0.20;;;19.70;99.90;;;;;;5050769;28;20494;-81
2022/06/08 09:12:47;;;;;;;;;;;19.70;99.90;;;;;;5050933;28;20494;-80
2022/06/08 09:15:17;;;;;;;0.32;0.22;;;19.60;99.90;;;;;;5050398;28;19921;-80
2022/06/08 09:17:56;;;;;;;0.30;0.28;;;19.60;99.90;;;;;;5083352;28;20037;-81
2022/06/08 09:20:30;;;;;;;0.35;0.28;;;19.60;99.90;;;;;;5050618;28;20064;-82
2022/06/08 09:23:02;;;;;;;0.68;0.40;;;19.70;99.90;;;;;;5051181;28;20124;-82
2022/06/08 09:25:34;;;;;;;0.45;0.30;;;19.80;99.90;;;;;;5083023;28;20045;-80
2022/06/08 09:28:02;;;;;;;0.15;0.15;;;19.80;99.90;;;;;;5066789;28;20052;-79
2022/06/08 09:30:31;;;;;;;0.35;0.30;;;19.90;99.90;;;;;;5049764;28;20041;-80
2022/06/08 09:33:13;;;;;;;0.20;0.20;;;19.90;99.90;;;;;;5066548;28;20091;-80
2022/06/08 09:35:52;;;;;;;0.17;0.17;;;20.00;99.90;;;;;;5050035;28;20050;-81
2022/06/08 09:38:23;;;;;;;0.20;0.20;;;20.10;99.90;;;;;;5050019;28;20068;-82
2022/06/08 09:41:16;;;;;;;1.05;0.50;;;20.10;99.90;;;;;;5049723;28;20060;-80
2022/06/08 09:43:58;;;;;;;0.30;0.30;;;20.20;99.90;;;;;;5046445;28;20042;-80
2022/06/08 09:52:41;;;;;;;0.20;0.20;;;20.30;99.90;;;;;;5078688;28;20040;-81
2022/06/08 09:55:47;;;;;;;0.35;0.20;;;20.20;99.90;;;;;;5081369;28;20037;-81
2022/06/08 09:58:29;;;;;;;0.20;0.20;;;20.20;99.90;;;;;;5027680;28;20096;-81
2022/06/08 10:01:11;;;;;;;0.17;0.17;;;20.10;99.90;;;;;;5076894;28;20055;-82
2022/06/08 10:04:23;;;;;;;0.43;0.30;;;20.20;99.90;;;;;;5070003;28;20122;-81
2022/06/08 10:07:12;;;;;;;0.22;0.22;;;20.40;99.90;;;;;;5055334;28;20095;-82
2022/06/08 10:10:17;;;;;;;0.52;0.30;;;20.80;99.90;;;;;;5069033;28;20490;-81
2022/06/08 10:12:47;;;;;;;0.28;0.20;;;20.90;99.90;;;;;;5074278;28;20041;-81
2022/06/08 10:15:35;;;;;;;0.50;0.30;;;20.70;99.90;;;;;;5074578;28;20144;-81
2022/06/08 10:18:41;;;;;;;0.40;0.40;;;20.50;99.90;;;;;;5071338;28;20049;-80
2022/06/08 10:21:22;;;;;;;0.30;0.30;;;20.50;99.90;;;;;;5071448;28;20449;-82
2022/06/08 10:23:57;;;;;;;0.30;0.15;;;20.60;99.90;;;;;;5077619;28;20073;-78
2022/06/08 10:26:34;;;;;;;;;;;20.70;99.90;;;;;;5077683;28;20098;-78
2022/06/08 10:29:45;;;;;;;0.60;0.30;;;20.70;99.90;;;;;;5084780;28;19928;-79
2022/06/08 10:32:29;;;;;;;0.20;0.20;;;20.80;99.90;;;;;;5101952;28;20075;-80
2022/06/08 10:34:55;;;;;;;0.32;0.30;;;20.80;99.90;;;;;;5081741;28;20033;-81
2022/06/08 10:37:36;;;;;;;1.25;0.40;;;20.90;99.90;;;;;;5078973;28;20119;-79
2022/06/08 10:40:16;;;;;;;0.20;0.20;;;20.90;99.90;;;;;;5092651;28;20498;-81
2022/06/08 10:42:46;;;;;;;0.85;0.50;;;20.80;99.90;;;;;;5065187;28;20041;-80
2022/06/08 10:45:26;;;;;;;1.48;0.68;;;20.60;99.90;;;;;;5042493;28;20040;-80
2022/06/08 10:48:13;;;;;;;0.55;0.40;;;20.50;99.90;;;;;;5084455;28;20143;-80
2022/06/08 10:50:45;;;;;;;0.20;0.20;;;20.40;99.90;;;;;;5079582;28;20055;-81
2022/06/08 10:56:34;;;;;;;0.40;0.40;;;20.20;99.90;;;;;;5077738;28;20045;-80
2022/06/08 10:59:07;;;;;;;0.75;0.40;;;20.30;99.90;;;;;;5065048;28;20094;-80
2022/06/08 11:01:49;;;;;;;0.30;0.30;;;20.40;99.90;;;;;;5078067;28;20052;-80
2022/06/08 11:04:32;;;;;;;0.57;0.40;;;20.50;99.90;;;;;;5063298;28;20041;-82
2022/06/08 11:07:10;;;;;;;0.45;0.38;;;20.50;99.90;;;;;;5076582;28;20401;-80
2022/06/08 11:09:39;;;;;;;0.20;0.20;;;20.60;99.90;;;;;;5084635;28;20080;-81
2022/06/08 11:12:12;;;;;;;1.42;0.57;;;20.90;99.90;;;;;;5067932;28;20040;-80
2022/06/08 11:14:48;;;;;;;0.38;0.32;;;21.10;99.90;;;;;;5084200;28;20479;-81
2022/06/08 11:17:28;;;;;;;0.30;0.25;;;21.50;99.90;;;;;;5084437;28;20098;-81
2022/06/08 11:20:11;;;;;;;0.30;0.30;;;21.70;99.90;;;;;;5067216;28;20106;-80
2022/06/08 11:22:43;;;;;;;0.77;0.40;;;21.80;99.90;;;;;;5084350;28;20094;-80
2022/06/08 11:25:17;;;;;;;0.55;0.40;;;21.70;99.90;;;;;;5062645;28;20033;-80
2022/06/08 11:27:44;;;;;;;0.52;0.40;;;21.60;99.90;;;;;;5074183;28;21392;-81
2022/06/08 11:30:23;;;;;;;0.22;0.22;;;21.50;99.90;;;;;;5058417;28;20094;-80
2022/06/08 11:32:53;;;;;;;0.43;0.30;;;21.50;99.90;;;;;;5057826;28;20045;-80
2022/06/08 11:35:46;;;;;;;0.93;0.38;;;21.40;99.90;;;;;;5075279;28;20033;-82
2022/06/08 11:38:32;;;;;;;0.45;0.30;;;21.50;99.90;;;;;;5075851;28;20037;-81
2022/06/08 11:41:25;;;;;;;0.82;0.50;;;21.50;99.90;;;;;;5066960;28;20049;-80
2022/06/08 11:43:52;;;;;;;0.30;0.30;;;21.40;99.90;;;;;;5077940;28;20072;-81
2022/06/08 11:46:43;;;;;;;0.10;0.10;;;21.30;99.90;;;;;;5076652;28;20095;-80
2022/06/08 11:49:32;;;;;;;0.45;0.30;;;21.30;99.90;;;;;;5077205;28;20048;-81
2022/06/08 11:52:15;;;;;;;0.10;0.10;;;21.60;99.90;;;;;;5091306;28;20048;-80
2022/06/08 11:54:42;;;;;;;0.20;0.20;;;21.70;99.90;;;;;;5056729;28;20047;-80
2022/06/08 11:57:16;;;;;;;0.65;0.43;;;21.70;99.90;;;;;;5058834;28;20040;-80
2022/06/08 11:59:44;;;;;;;0.28;0.20;;;21.80;99.90;;;;;;5074352;28;20600;-80
2022/06/08 12:02:24;;;;;;;0.20;0.20;;;21.80;99.90;;;;;;5074710;28;20047;-81
2022/06/08 12:04:55;;;;;;;0.20;0.20;;;21.80;99.90;;;;;;5090815;28;20045;-81
2022/06/08 12:07:42;;;;;;;0.57;0.30;;;21.80;99.90;;;;;;5091134;28;20127;-80
2022/06/08 12:10:20;;;;;;;0.40;0.40;;;21.90;99.90;;;;;;5090947;28;20052;-81
2022/06/08 12:12:48;;;;;;;0.38;0.20;;;21.80;99.90;;;;;;5067587;28;20087;-80
2022/06/08 12:15:26;;;;;;;0.40;0.30;;;21.90;99.90;;;;;;5091184;28;20040;-80
2022/06/08 12:17:54;;;;;;;0.65;0.32;;;22.00;99.90;;;;;;5090790;28;20549;-81
2022/06/08 12:20:35;;;;;;;0.52;0.45;;;22.10;99.90;;;;;;5061020;28;20075;-80
2022/06/08 12:23:02;;;;;;;0.10;0.10;;;22.20;99.90;;;;;;5081166;28;20052;-81
2022/06/08 12:25:30;;;;;;;0.82;0.50;;;22.20;99.90;;;;;;5055119;28;20040;-80
2022/06/08 12:28:21;;;;;;;0.20;0.20;;;22.40;99.90;;;;;;5071044;28;20083;-80
2022/06/08 12:30:50;;;;;;;0.38;0.32;;;22.70;99.90;;;;;;5073428;28;20037;-80
2022/06/08 12:33:17;;;;;;;0.30;0.30;;;22.80;99.90;;;;;;5090920;28;20120;-80
2022/06/08 12:36:10;;;;;;;0.30;0.30;;;22.90;99.90;;;;;;5085861;28;20207;-80
2022/06/08 12:39:09;;;;;;;0.70;0.50;;;23.00;99.90;;;;;;5068915;28;20036;-79
2022/06/08 12:41:42;;;;;;;0.30;0.30;;;23.00;99.90;;;;;;5073299;28;20083;-82
2022/06/08 12:44:18;;;;;;;0.30;0.30;;;23.00;99.90;;;;;;5073682;28;20121;-81
2022/06/08 12:47:12;;;;;;;0.47;0.40;;;22.90;99.90;;;;;;5081060;28;20044;-80
2022/06/08 12:49:55;;;;;;;0.75;0.50;;;22.80;99.90;;;;;;5095087;28;20056;-81
2022/06/08 12:52:24;;;;;;;0.40;0.38;;;22.50;99.90;;;;;;5089737;28;20049;-81
2022/06/08 12:54:52;;;;;;;0.25;0.25;;;22.30;99.90;;;;;;5073205;28;20466;-81
2022/06/08 12:57:23;;;;;;;0.68;0.45;;;22.00;99.90;;;;;;5056621;28;20489;-82
2022/06/08 12:59:53;;;;;;;0.40;0.40;;;21.90;99.90;;;;;;5090299;28;20051;-80
2022/06/08 13:02:25;;;;;;;0.40;0.20;;;21.70;99.90;;;;;;5089855;28;20052;-82
2022/06/08 13:04:53;;;;;;;0.13;0.13;;;20.90;99.90;;;;;;5058705;28;20103;-80
2022/06/08 13:07:25;;;;;;;0.22;0.22;;;20.00;99.90;;;;;;5077365;28;20040;-80
2022/06/08 13:09:52;;;;;;;0.17;0.17;;;19.30;99.90;;;;;;5093182;28;20497;-80
2022/06/08 13:12:23;;;;;;;0.20;0.20;;;18.40;99.90;;;;;;5088229;28;20039;-80
2022/06/08 13:14:51;;;;;;;0.15;0.15;;;17.80;99.90;;;;;;5067738;28;20032;-83
2022/06/08 13:17:19;;;;;;;0.10;0.10;;;17.40;99.90;;;;;;5075333;28;20052;-80
2022/06/08 13:19:46;;;;;;;0.10;0.10;;;17.00;99.90;;;;;;5067789;28;20028;-80
2022/06/08 13:22:13;;;;;;;0.00;0.00;;;16.80;99.90;;;;;;5059113;28;20053;-79
2022/06/08 13:24:40;;;;;;;0.65;0.30;;;16.60;99.90;;;;;;5069930;28;20051;-79
2022/06/08 13:27:17;;;;;;;0.47;0.47;;;16.50;99.90;;;;;;5089395;28;20040;-81
2022/06/08 13:29:44;;;;;;;0.10;0.10;;;16.40;99.90;;;;;;5089926;28;20135;-81
2022/06/08 13:32:20;;;;;;;0.13;0.13;;;16.30;99.90;;;;;;5089879;28;20108;-79
2022/06/08 13:34:48;;;;;;;0.10;0.10;;;16.30;99.90;;;;;;5088473;28;20440;-80
2022/06/08 13:37:28;;;;;;;0.10;0.10;;;16.20;99.90;;;;;;5056414;28;20044;-80